Albany, Minnesota
Current Conditions -  °F | °C
As of 8:12 AM on Saturday 25 Oct 2014 (Local Time) from KD39 Reporting Station
Clear Clear  
Wind Chill: 35°   Ceiling: Unl
Heat Index: 39°   Visibility: 10mi
Dew Point: 32°   Wind: 5mph
Humidity: 78%   Direction: 290°WNW
Pressure: 30.06"   Gusts: NA
Location:  45.63°N, 94.57°W
Report Text: KD39 251312Z AUTO 29004KT 10SM CLR 04/00 A3006 RMK AO2 T00370001
Loading
Personal Weather Stations






























Interactive Weather Map
Tropical Storm Tracking
New forecast layout! Learn more

10-Day Weather Forecast

Advertisements
Track Severe Weather on mobile